sensor_id;sensor_type;location;lat;lon;timestamp;temperature;humidity
39899;DHT22;25571;47.876;10.642;2023-04-25T00:01:19;7.20;99.90
39899;DHT22;25571;47.876;10.642;2023-04-25T00:03:45;7.30;99.90
39899;DHT22;25571;47.876;10.642;2023-04-25T00:06:11;7.20;99.90
39899;DHT22;25571;47.876;10.642;2023-04-25T00:08:37;7.30;99.90
39899;DHT22;25571;47.876;10.642;2023-04-25T00:11:03;7.30;99.90
39899;DHT22;25571;47.876;10.642;2023-04-25T00:13:28;7.40;99.90
39899;DHT22;25571;47.876;10.642;2023-04-25T00:15:55;7.30;99.90
39899;DHT22;25571;47.876;10.642;2023-04-25T00:18:21;7.20;99.90
39899;DHT22;25571;47.876;10.642;2023-04-25T00:20:47;7.20;99.90
39899;DHT22;25571;47.876;10.642;2023-04-25T00:23:14;7.40;99.90
39899;DHT22;25571;47.876;10.642;2023-04-25T00:25:48;7.20;99.90
39899;DHT22;25571;47.876;10.642;2023-04-25T00:28:14;7.30;99.90
39899;DHT22;25571;47.876;10.642;2023-04-25T00:30:41;7.20;99.90
39899;DHT22;25571;47.876;10.642;2023-04-25T00:33:06;7.20;99.90
39899;DHT22;25571;47.876;10.642;2023-04-25T00:35:32;7.20;99.90
39899;DHT22;25571;47.876;10.642;2023-04-25T00:37:59;7.20;99.90
39899;DHT22;25571;47.876;10.642;2023-04-25T00:40:24;7.30;99.90
39899;DHT22;25571;47.876;10.642;2023-04-25T00:42:52;7.30;99.90
39899;DHT22;25571;47.876;10.642;2023-04-25T00:45:18;7.40;99.90
39899;DHT22;25571;47.876;10.642;2023-04-25T00:47:44;7.40;99.90
39899;DHT22;25571;47.876;10.642;2023-04-25T00:50:11;7.40;99.90
39899;DHT22;25571;47.876;10.642;2023-04-25T00:52:42;7.40;99.90
39899;DHT22;25571;47.876;10.642;2023-04-25T00:55:09;7.40;99.90
39899;DHT22;25571;47.876;10.642;2023-04-25T00:57:36;7.50;99.90
39899;DHT22;25571;47.876;10.642;2023-04-25T01:00:02;7.50;99.90
39899;DHT22;25571;47.876;10.642;2023-04-25T01:02:29;7.50;99.90
39899;DHT22;25571;47.876;10.642;2023-04-25T01:04:55;7.50;99.90
39899;DHT22;25571;47.876;10.642;2023-04-25T01:07:20;7.60;99.90
39899;DHT22;25571;47.876;10.642;2023-04-25T01:09:46;7.60;99.90
39899;DHT22;25571;47.876;10.642;2023-04-25T01:12:12;7.60;99.90
39899;DHT22;25571;47.876;10.642;2023-04-25T01:14:38;7.70;99.90
39899;DHT22;25571;47.876;10.642;2023-04-25T01:17:04;7.70;99.90
39899;DHT22;25571;47.876;10.642;2023-04-25T01:19:29;7.70;99.90
39899;DHT22;25571;47.876;10.642;2023-04-25T01:21:56;7.70;99.90
39899;DHT22;25571;47.876;10.642;2023-04-25T01:24:21;7.80;99.90
39899;DHT22;25571;47.876;10.642;2023-04-25T01:26:48;7.80;99.90
39899;DHT22;25571;47.876;10.642;2023-04-25T01:29:20;7.80;99.90
39899;DHT22;25571;47.876;10.642;2023-04-25T01:31:46;7.90;99.90
39899;DHT22;25571;47.876;10.642;2023-04-25T01:34:12;7.90;99.90
39899;DHT22;25571;47.876;10.642;2023-04-25T01:36:39;8.00;99.90
39899;DHT22;25571;47.876;10.642;2023-04-25T01:39:05;7.90;99.90
39899;DHT22;25571;47.876;10.642;2023-04-25T01:41:31;7.80;99.90
39899;DHT22;25571;47.876;10.642;2023-04-25T01:43:57;7.70;99.90
39899;DHT22;25571;47.876;10.642;2023-04-25T01:46:22;7.70;99.90
39899;DHT22;25571;47.876;10.642;2023-04-25T01:48:48;7.60;99.90
39899;DHT22;25571;47.876;10.642;2023-04-25T01:51:14;7.60;99.90
39899;DHT22;25571;47.876;10.642;2023-04-25T01:53:40;7.50;99.90
39899;DHT22;25571;47.876;10.642;2023-04-25T01:56:06;7.50;99.90
39899;DHT22;25571;47.876;10.642;2023-04-25T01:58:32;7.40;99.90
39899;DHT22;25571;47.876;10.642;2023-04-25T02:00:57;7.40;99.90
39899;DHT22;25571;47.876;10.642;2023-04-25T02:03:23;7.30;99.90
39899;DHT22;25571;47.876;10.642;2023-04-25T02:05:49;7.40;99.90
39899;DHT22;25571;47.876;10.642;2023-04-25T02:08:16;7.40;99.90
39899;DHT22;25571;47.876;10.642;2023-04-25T02:10:42;7.40;99.90
39899;DHT22;25571;47.876;10.642;2023-04-25T02:13:08;7.50;99.90
39899;DHT22;25571;47.876;10.642;2023-04-25T02:15:33;7.40;99.90
39899;DHT22;25571;47.876;10.642;2023-04-25T02:17:59;7.40;99.90
39899;DHT22;25571;47.876;10.642;2023-04-25T02:20:26;7.60;99.90
39899;DHT22;25571;47.876;10.642;2023-04-25T02:22:51;7.60;99.90
39899;DHT22;25571;47.876;10.642;2023-04-25T02:25:20;7.60;99.90
39899;DHT22;25571;47.876;10.642;2023-04-25T02:27:47;7.60;99.90
39899;DHT22;25571;47.876;10.642;2023-04-25T02:30:12;7.40;99.90
39899;DHT22;25571;47.876;10.642;2023-04-25T02:32:39;7.40;99.90
39899;DHT22;25571;47.876;10.642;2023-04-25T02:35:05;7.40;99.90
39899;DHT22;25571;47.876;10.642;2023-04-25T02:37:35;7.30;99.90
39899;DHT22;25571;47.876;10.642;2023-04-25T02:40:01;7.30;99.90
39899;DHT22;25571;47.876;10.642;2023-04-25T02:42:28;7.30;99.90
39899;DHT22;25571;47.876;10.642;2023-04-25T02:44:53;7.30;99.90
39899;DHT22;25571;47.876;10.642;2023-04-25T02:47:19;7.30;99.90
39899;DHT22;25571;47.876;10.642;2023-04-25T02:49:45;7.30;99.90
39899;DHT22;25571;47.876;10.642;2023-04-25T02:52:11;7.20;99.90
39899;DHT22;25571;47.876;10.642;2023-04-25T02:54:37;7.20;99.90
39899;DHT22;25571;47.876;10.642;2023-04-25T02:57:03;7.20;99.90
39899;DHT22;25571;47.876;10.642;2023-04-25T02:59:29;7.10;99.90
39899;DHT22;25571;47.876;10.642;2023-04-25T03:01:54;7.10;99.90
39899;DHT22;25571;47.876;10.642;2023-04-25T03:04:20;7.10;99.90
39899;DHT22;25571;47.876;10.642;2023-04-25T03:06:46;7.00;99.90
39899;DHT22;25571;47.876;10.642;2023-04-25T03:09:12;7.10;99.90
39899;DHT22;25571;47.876;10.642;2023-04-25T03:11:38;7.20;99.90
39899;DHT22;25571;47.876;10.642;2023-04-25T03:14:04;7.20;99.90
39899;DHT22;25571;47.876;10.642;2023-04-25T03:16:30;7.20;99.90
39899;DHT22;25571;47.876;10.642;2023-04-25T03:18:56;7.10;99.90
39899;DHT22;25571;47.876;10.642;2023-04-25T03:21:22;7.20;99.90
39899;DHT22;25571;47.876;10.642;2023-04-25T03:23:48;7.20;99.90
39899;DHT22;25571;47.876;10.642;2023-04-25T03:26:13;7.20;99.90
39899;DHT22;25571;47.876;10.642;2023-04-25T03:28:39;7.20;99.90
39899;DHT22;25571;47.876;10.642;2023-04-25T03:31:05;7.20;99.90
39899;DHT22;25571;47.876;10.642;2023-04-25T03:33:31;7.20;99.90
39899;DHT22;25571;47.876;10.642;2023-04-25T03:35:57;7.20;99.90
39899;DHT22;25571;47.876;10.642;2023-04-25T03:38:22;7.20;99.90
39899;DHT22;25571;47.876;10.642;2023-04-25T03:40:50;7.10;99.90
39899;DHT22;25571;47.876;10.642;2023-04-25T03:43:16;7.10;99.90
39899;DHT22;25571;47.876;10.642;2023-04-25T03:45:42;7.00;99.90
39899;DHT22;25571;47.876;10.642;2023-04-25T03:48:07;6.90;99.90
39899;DHT22;25571;47.876;10.642;2023-04-25T03:50:33;6.90;99.90
39899;DHT22;25571;47.876;10.642;2023-04-25T03:52:58;6.80;99.90
39899;DHT22;25571;47.876;10.642;2023-04-25T03:55:24;6.80;99.90
39899;DHT22;25571;47.876;10.642;2023-04-25T03:57:49;6.80;99.90
39899;DHT22;25571;47.876;10.642;2023-04-25T04:00:15;6.80;99.90
39899;DHT22;25571;47.876;10.642;2023-04-25T04:02:41;6.80;99.90
39899;DHT22;25571;47.876;10.642;2023-04-25T04:05:07;6.80;99.90
39899;DHT22;25571;47.876;10.642;2023-04-25T04:07:32;6.80;99.90
39899;DHT22;25571;47.876;10.642;2023-04-25T04:09:59;6.70;99.90
39899;DHT22;25571;47.876;10.642;2023-04-25T04:12:24;6.70;99.90
39899;DHT22;25571;47.876;10.642;2023-04-25T04:14:50;6.60;99.90
39899;DHT22;25571;47.876;10.642;2023-04-25T04:17:15;6.60;99.90
39899;DHT22;25571;47.876;10.642;2023-04-25T04:19:41;6.50;99.90
39899;DHT22;25571;47.876;10.642;2023-04-25T04:22:07;6.50;99.90
39899;DHT22;25571;47.876;10.642;2023-04-25T04:24:32;6.50;99.90
39899;DHT22;25571;47.876;10.642;2023-04-25T04:26:58;6.60;99.90
39899;DHT22;25571;47.876;10.642;2023-04-25T04:29:24;6.60;99.90
39899;DHT22;25571;47.876;10.642;2023-04-25T04:31:51;6.60;99.90
39899;DHT22;25571;47.876;10.642;2023-04-25T04:34:18;6.60;99.90
39899;DHT22;25571;47.876;10.642;2023-04-25T04:36:44;6.60;99.90
39899;DHT22;25571;47.876;10.642;2023-04-25T04:39:12;6.60;99.90
39899;DHT22;25571;47.876;10.642;2023-04-25T04:41:37;6.60;99.90
39899;DHT22;25571;47.876;10.642;2023-04-25T04:44:03;6.60;99.90
39899;DHT22;25571;47.876;10.642;2023-04-25T04:46:29;6.70;99.90
39899;DHT22;25571;47.876;10.642;2023-04-25T04:48:56;6.60;99.90
39899;DHT22;25571;47.876;10.642;2023-04-25T04:51:22;6.60;99.90
39899;DHT22;25571;47.876;10.642;2023-04-25T04:53:47;6.60;99.90
39899;DHT22;25571;47.876;10.642;2023-04-25T04:56:13;6.70;99.90
39899;DHT22;25571;47.876;10.642;2023-04-25T04:58:39;6.60;99.90
39899;DHT22;25571;47.876;10.642;2023-04-25T05:01:04;6.70;99.90
39899;DHT22;25571;47.876;10.642;2023-04-25T05:03:30;6.80;99.90
39899;DHT22;25571;47.876;10.642;2023-04-25T05:05:56;6.80;99.90
39899;DHT22;25571;47.876;10.642;2023-04-25T05:08:22;6.90;99.90
39899;DHT22;25571;47.876;10.642;2023-04-25T05:10:47;6.90;99.90
39899;DHT22;25571;47.876;10.642;2023-04-25T05:13:13;6.90;99.90
39899;DHT22;25571;47.876;10.642;2023-04-25T05:15:38;6.90;99.90
39899;DHT22;25571;47.876;10.642;2023-04-25T05:18:04;7.00;99.90
39899;DHT22;25571;47.876;10.642;2023-04-25T05:20:30;7.00;99.90
39899;DHT22;25571;47.876;10.642;2023-04-25T05:22:55;7.00;99.90
39899;DHT22;25571;47.876;10.642;2023-04-25T05:25:21;6.90;99.90
39899;DHT22;25571;47.876;10.642;2023-04-25T05:27:46;7.10;99.90
39899;DHT22;25571;47.876;10.642;2023-04-25T05:30:12;7.30;99.90
39899;DHT22;25571;47.876;10.642;2023-04-25T05:32:38;7.50;99.90
39899;DHT22;25571;47.876;10.642;2023-04-25T05:35:04;8.10;99.90
39899;DHT22;25571;47.876;10.642;2023-04-25T05:37:30;8.70;99.90
39899;DHT22;25571;47.876;10.642;2023-04-25T05:39:57;9.10;99.90
39899;DHT22;25571;47.876;10.642;2023-04-25T05:42:23;9.40;99.90
39899;DHT22;25571;47.876;10.642;2023-04-25T05:44:49;9.60;99.90
39899;DHT22;25571;47.876;10.642;2023-04-25T05:47:14;9.80;99.90
39899;DHT22;25571;47.876;10.642;2023-04-25T05:49:40;10.20;99.90
39899;DHT22;25571;47.876;10.642;2023-04-25T05:52:06;10.10;99.90
39899;DHT22;25571;47.876;10.642;2023-04-25T05:54:31;10.00;99.90
39899;DHT22;25571;47.876;10.642;2023-04-25T05:56:57;9.80;99.90
39899;DHT22;25571;47.876;10.642;2023-04-25T05:59:23;9.70;99.90
39899;DHT22;25571;47.876;10.642;2023-04-25T06:01:48;9.80;99.90
39899;DHT22;25571;47.876;10.642;2023-04-25T06:04:14;9.80;99.90
39899;DHT22;25571;47.876;10.642;2023-04-25T06:06:39;9.60;99.90
39899;DHT22;25571;47.876;10.642;2023-04-25T06:09:05;9.60;99.90
39899;DHT22;25571;47.876;10.642;2023-04-25T06:11:30;9.80;99.90
39899;DHT22;25571;47.876;10.642;2023-04-25T06:13:56;10.10;99.90
39899;DHT22;25571;47.876;10.642;2023-04-25T06:16:21;10.20;99.90
39899;DHT22;25571;47.876;10.642;2023-04-25T06:18:47;10.20;99.90
39899;DHT22;25571;47.876;10.642;2023-04-25T06:21:13;10.20;99.90
39899;DHT22;25571;47.876;10.642;2023-04-25T06:23:38;10.00;99.90
39899;DHT22;25571;47.876;10.642;2023-04-25T06:26:04;9.90;99.90
39899;DHT22;25571;47.876;10.642;2023-04-25T06:28:29;9.80;99.90
39899;DHT22;25571;47.876;10.642;2023-04-25T06:30:55;9.70;99.90
39899;DHT22;25571;47.876;10.642;2023-04-25T06:33:20;9.70;99.90
39899;DHT22;25571;47.876;10.642;2023-04-25T06:35:47;9.70;99.90
39899;DHT22;25571;47.876;10.642;2023-04-25T06:38:13;9.70;99.90
39899;DHT22;25571;47.876;10.642;2023-04-25T06:40:38;9.80;99.90
39899;DHT22;25571;47.876;10.642;2023-04-25T06:43:04;10.20;99.90
39899;DHT22;25571;47.876;10.642;2023-04-25T06:45:30;10.70;99.90
39899;DHT22;25571;47.876;10.642;2023-04-25T06:47:55;10.90;99.90
39899;DHT22;25571;47.876;10.642;2023-04-25T06:50:21;10.90;99.90
39899;DHT22;25571;47.876;10.642;2023-04-25T06:52:46;10.90;99.90
39899;DHT22;25571;47.876;10.642;2023-04-25T06:55:12;11.00;99.90
39899;DHT22;25571;47.876;10.642;2023-04-25T06:57:38;11.10;99.90
39899;DHT22;25571;47.876;10.642;2023-04-25T07:00:04;11.20;99.90
39899;DHT22;25571;47.876;10.642;2023-04-25T07:02:35;11.30;99.90
39899;DHT22;25571;47.876;10.642;2023-04-25T07:05:01;11.50;99.90
39899;DHT22;25571;47.876;10.642;2023-04-25T07:07:32;11.70;99.90
39899;DHT22;25571;47.876;10.642;2023-04-25T07:09:57;11.60;99.90
39899;DHT22;25571;47.876;10.642;2023-04-25T07:12:23;11.80;99.90
39899;DHT22;25571;47.876;10.642;2023-04-25T07:14:48;11.90;99.90
39899;DHT22;25571;47.876;10.642;2023-04-25T07:17:14;12.30;99.90
39899;DHT22;25571;47.876;10.642;2023-04-25T07:19:40;12.60;99.90
39899;DHT22;25571;47.876;10.642;2023-04-25T07:22:06;13.00;99.90
39899;DHT22;25571;47.876;10.642;2023-04-25T07:24:32;13.40;99.90
39899;DHT22;25571;47.876;10.642;2023-04-25T07:26:58;13.70;99.90
39899;DHT22;25571;47.876;10.642;2023-04-25T07:29:23;14.00;99.90
39899;DHT22;25571;47.876;10.642;2023-04-25T07:31:49;14.80;98.70
39899;DHT22;25571;47.876;10.642;2023-04-25T07:34:15;15.60;95.60
39899;DHT22;25571;47.876;10.642;2023-04-25T07:36:41;15.70;95.10
39899;DHT22;25571;47.876;10.642;2023-04-25T07:39:07;15.90;94.40
39899;DHT22;25571;47.876;10.642;2023-04-25T07:41:34;15.90;92.80
39899;DHT22;25571;47.876;10.642;2023-04-25T07:44:00;15.80;93.20
39899;DHT22;25571;47.876;10.642;2023-04-25T07:46:26;16.70;90.30
39899;DHT22;25571;47.876;10.642;2023-04-25T07:48:51;17.70;88.00
39899;DHT22;25571;47.876;10.642;2023-04-25T07:51:17;18.10;82.30
39899;DHT22;25571;47.876;10.642;2023-04-25T07:53:45;18.00;79.20
39899;DHT22;25571;47.876;10.642;2023-04-25T07:56:11;20.30;78.50
39899;DHT22;25571;47.876;10.642;2023-04-25T07:58:37;20.10;70.20
39899;DHT22;25571;47.876;10.642;2023-04-25T08:01:02;18.90;70.80
39899;DHT22;25571;47.876;10.642;2023-04-25T08:03:28;18.00;73.30
39899;DHT22;25571;47.876;10.642;2023-04-25T08:05:54;17.00;74.40
39899;DHT22;25571;47.876;10.642;2023-04-25T08:08:19;16.10;76.60
39899;DHT22;25571;47.876;10.642;2023-04-25T08:10:45;15.80;78.60
39899;DHT22;25571;47.876;10.642;2023-04-25T08:13:10;15.40;78.40
39899;DHT22;25571;47.876;10.642;2023-04-25T08:15:36;15.10;81.40
39899;DHT22;25571;47.876;10.642;2023-04-25T08:18:01;16.80;83.00
39899;DHT22;25571;47.876;10.642;2023-04-25T08:20:27;24.10;62.60
39899;DHT22;25571;47.876;10.642;2023-04-25T08:22:52;26.50;52.10
39899;DHT22;25571;47.876;10.642;2023-04-25T08:25:18;22.10;51.90
39899;DHT22;25571;47.876;10.642;2023-04-25T08:27:44;20.20;56.70
39899;DHT22;25571;47.876;10.642;2023-04-25T08:30:10;20.50;57.80
39899;DHT22;25571;47.876;10.642;2023-04-25T08:32:35;21.30;56.60
39899;DHT22;25571;47.876;10.642;2023-04-25T08:35:03;20.10;57.30
39899;DHT22;25571;47.876;10.642;2023-04-25T08:37:29;19.00;59.80
39899;DHT22;25571;47.876;10.642;2023-04-25T08:39:55;18.90;60.00
39899;DHT22;25571;47.876;10.642;2023-04-25T08:42:22;19.10;60.60
39899;DHT22;25571;47.876;10.642;2023-04-25T08:44:49;25.70;53.50
39899;DHT22;25571;47.876;10.642;2023-04-25T08:47:15;26.10;45.70
39899;DHT22;25571;47.876;10.642;2023-04-25T08:49:45;22.50;51.40
39899;DHT22;25571;47.876;10.642;2023-04-25T08:52:13;20.40;54.20
39899;DHT22;25571;47.876;10.642;2023-04-25T08:54:42;19.10;57.50
39899;DHT22;25571;47.876;10.642;2023-04-25T08:57:09;17.90;60.20
39899;DHT22;25571;47.876;10.642;2023-04-25T08:59:35;17.20;62.80
39899;DHT22;25571;47.876;10.642;2023-04-25T09:02:03;16.60;60.90
39899;DHT22;25571;47.876;10.642;2023-04-25T09:04:32;16.00;64.60
39899;DHT22;25571;47.876;10.642;2023-04-25T09:06:57;15.80;66.40
39899;DHT22;25571;47.876;10.642;2023-04-25T09:09:24;15.40;69.00
39899;DHT22;25571;47.876;10.642;2023-04-25T09:11:49;15.20;69.50
39899;DHT22;25571;47.876;10.642;2023-04-25T09:14:17;15.00;71.80
39899;DHT22;25571;47.876;10.642;2023-04-25T09:19:36;14.20;76.40
39899;DHT22;25571;47.876;10.642;2023-04-25T09:22:05;13.80;83.00
39899;DHT22;25571;47.876;10.642;2023-04-25T09:24:44;13.70;81.60
39899;DHT22;25571;47.876;10.642;2023-04-25T09:27:13;14.00;83.60
39899;DHT22;25571;47.876;10.642;2023-04-25T09:29:43;14.20;81.10
39899;DHT22;25571;47.876;10.642;2023-04-25T09:32:23;14.20;81.00
39899;DHT22;25571;47.876;10.642;2023-04-25T09:34:51;13.80;83.30
39899;DHT22;25571;47.876;10.642;2023-04-25T09:37:18;13.40;81.20
39899;DHT22;25571;47.876;10.642;2023-04-25T09:39:46;13.40;81.00
39899;DHT22;25571;47.876;10.642;2023-04-25T09:42:16;13.00;79.90
39899;DHT22;25571;47.876;10.642;2023-04-25T09:44:43;12.70;82.50
39899;DHT22;25571;47.876;10.642;2023-04-25T09:47:11;12.40;84.40
39899;DHT22;25571;47.876;10.642;2023-04-25T09:49:40;12.20;86.60
39899;DHT22;25571;47.876;10.642;2023-04-25T09:52:09;12.00;85.80
39899;DHT22;25571;47.876;10.642;2023-04-25T09:54:38;11.80;87.40
39899;DHT22;25571;47.876;10.642;2023-04-25T09:59:42;11.40;90.50
39899;DHT22;25571;47.876;10.642;2023-04-25T10:02:08;11.30;92.00
39899;DHT22;25571;47.876;10.642;2023-04-25T10:04:35;11.00;93.10
39899;DHT22;25571;47.876;10.642;2023-04-25T10:07:06;10.70;93.50
39899;DHT22;25571;47.876;10.642;2023-04-25T10:09:32;10.40;95.60
39899;DHT22;25571;47.876;10.642;2023-04-25T10:12:01;10.20;96.10
39899;DHT22;25571;47.876;10.642;2023-04-25T10:14:30;10.00;96.80
39899;DHT22;25571;47.876;10.642;2023-04-25T10:16:56;9.90;97.50
39899;DHT22;25571;47.876;10.642;2023-04-25T10:19:23;9.80;98.60
39899;DHT22;25571;47.876;10.642;2023-04-25T10:22:13;9.90;99.90
39899;DHT22;25571;47.876;10.642;2023-04-25T10:24:40;9.80;99.90
39899;DHT22;25571;47.876;10.642;2023-04-25T10:27:07;9.80;99.90
39899;DHT22;25571;47.876;10.642;2023-04-25T10:29:33;9.80;99.90
39899;DHT22;25571;47.876;10.642;2023-04-25T10:32:00;9.70;99.90
39899;DHT22;25571;47.876;10.642;2023-04-25T10:34:43;9.70;99.90
39899;DHT22;25571;47.876;10.642;2023-04-25T10:37:12;9.80;99.90
39899;DHT22;25571;47.876;10.642;2023-04-25T10:39:39;9.80;99.90
39899;DHT22;25571;47.876;10.642;2023-04-25T10:42:05;9.90;99.90
39899;DHT22;25571;47.876;10.642;2023-04-25T10:44:33;9.90;99.90
39899;DHT22;25571;47.876;10.642;2023-04-25T10:47:00;10.00;99.90
39899;DHT22;25571;47.876;10.642;2023-04-25T10:49:37;10.00;99.90
39899;DHT22;25571;47.876;10.642;2023-04-25T10:54:47;10.10;99.90
39899;DHT22;25571;47.876;10.642;2023-04-25T10:57:32;10.10;99.90
39899;DHT22;25571;47.876;10.642;2023-04-25T11:00:05;10.10;99.90
39899;DHT22;25571;47.876;10.642;2023-04-25T11:02:31;9.90;99.90
39899;DHT22;25571;47.876;10.642;2023-04-25T11:04:57;10.10;99.90
39899;DHT22;25571;47.876;10.642;2023-04-25T11:09:57;9.80;99.90
39899;DHT22;25571;47.876;10.642;2023-04-25T11:12:24;9.70;99.90
39899;DHT22;25571;47.876;10.642;2023-04-25T11:14:50;9.60;99.90
39899;DHT22;25571;47.876;10.642;2023-04-25T11:17:16;9.50;99.90
39899;DHT22;25571;47.876;10.642;2023-04-25T11:19:41;9.50;99.90
39899;DHT22;25571;47.876;10.642;2023-04-25T11:22:07;9.50;99.90
39899;DHT22;25571;47.876;10.642;2023-04-25T11:24:34;9.60;99.90
39899;DHT22;25571;47.876;10.642;2023-04-25T11:27:04;9.60;99.90
39899;DHT22;25571;47.876;10.642;2023-04-25T11:29:32;9.50;99.90
39899;DHT22;25571;47.876;10.642;2023-04-25T11:31:58;9.50;99.90
39899;DHT22;25571;47.876;10.642;2023-04-25T11:34:24;9.50;99.90
39899;DHT22;25571;47.876;10.642;2023-04-25T11:36:51;9.50;99.90
39899;DHT22;25571;47.876;10.642;2023-04-25T11:39:20;9.50;99.90
39899;DHT22;25571;47.876;10.642;2023-04-25T11:41:46;9.50;99.90
39899;DHT22;25571;47.876;10.642;2023-04-25T11:44:15;9.60;99.90
39899;DHT22;25571;47.876;10.642;2023-04-25T11:46:42;9.60;99.90
39899;DHT22;25571;47.876;10.642;2023-04-25T11:49:07;9.80;99.90
39899;DHT22;25571;47.876;10.642;2023-04-25T11:51:44;9.90;99.90
39899;DHT22;25571;47.876;10.642;2023-04-25T11:54:10;9.90;99.90
39899;DHT22;25571;47.876;10.642;2023-04-25T11:56:37;9.90;99.90
39899;DHT22;25571;47.876;10.642;2023-04-25T11:59:04;9.90;99.90
39899;DHT22;25571;47.876;10.642;2023-04-25T12:01:38;9.90;99.90
39899;DHT22;25571;47.876;10.642;2023-04-25T12:06:45;9.80;99.90
39899;DHT22;25571;47.876;10.642;2023-04-25T12:09:16;9.80;99.90
39899;DHT22;25571;47.876;10.642;2023-04-25T12:11:53;9.70;99.90
39899;DHT22;25571;47.876;10.642;2023-04-25T12:14:27;9.60;99.90
39899;DHT22;25571;47.876;10.642;2023-04-25T12:16:55;9.70;99.90
39899;DHT22;25571;47.876;10.642;2023-04-25T12:19:21;9.50;99.90
39899;DHT22;25571;47.876;10.642;2023-04-25T12:21:47;9.50;99.90
39899;DHT22;25571;47.876;10.642;2023-04-25T12:24:24;10.00;99.90
39899;DHT22;25571;47.876;10.642;2023-04-25T12:29:21;9.90;99.90
39899;DHT22;25571;47.876;10.642;2023-04-25T12:31:48;9.90;99.90
39899;DHT22;25571;47.876;10.642;2023-04-25T12:34:14;9.80;99.90
39899;DHT22;25571;47.876;10.642;2023-04-25T12:36:40;9.90;99.90
39899;DHT22;25571;47.876;10.642;2023-04-25T12:39:06;9.80;99.90
39899;DHT22;25571;47.876;10.642;2023-04-25T12:41:32;9.70;99.90
39899;DHT22;25571;47.876;10.642;2023-04-25T12:43:58;9.80;99.90
39899;DHT22;25571;47.876;10.642;2023-04-25T12:46:23;9.60;99.90
39899;DHT22;25571;47.876;10.642;2023-04-25T12:48:49;9.40;99.90
39899;DHT22;25571;47.876;10.642;2023-04-25T12:51:15;9.40;99.90
39899;DHT22;25571;47.876;10.642;2023-04-25T12:53:41;9.20;99.90
39899;DHT22;25571;47.876;10.642;2023-04-25T12:56:08;9.20;99.90
39899;DHT22;25571;47.876;10.642;2023-04-25T12:58:34;9.10;99.90
39899;DHT22;25571;47.876;10.642;2023-04-25T13:00:59;9.10;99.90
39899;DHT22;25571;47.876;10.642;2023-04-25T13:03:25;9.00;99.90
39899;DHT22;25571;47.876;10.642;2023-04-25T13:05:51;9.00;99.90
39899;DHT22;25571;47.876;10.642;2023-04-25T13:08:18;9.40;99.90
39899;DHT22;25571;47.876;10.642;2023-04-25T13:10:44;9.70;99.90
39899;DHT22;25571;47.876;10.642;2023-04-25T13:13:09;10.00;99.90
39899;DHT22;25571;47.876;10.642;2023-04-25T13:15:35;10.50;99.90
39899;DHT22;25571;47.876;10.642;2023-04-25T13:18:02;10.30;99.90
39899;DHT22;25571;47.876;10.642;2023-04-25T13:20:28;10.30;99.90
39899;DHT22;25571;47.876;10.642;2023-04-25T13:22:54;10.40;99.90
39899;DHT22;25571;47.876;10.642;2023-04-25T13:25:20;10.50;99.90
39899;DHT22;25571;47.876;10.642;2023-04-25T13:27:47;10.50;99.90
39899;DHT22;25571;47.876;10.642;2023-04-25T13:30:12;10.60;99.90
39899;DHT22;25571;47.876;10.642;2023-04-25T13:32:38;10.50;99.90
39899;DHT22;25571;47.876;10.642;2023-04-25T13:35:09;10.50;99.90
39899;DHT22;25571;47.876;10.642;2023-04-25T13:37:35;10.50;99.90
39899;DHT22;25571;47.876;10.642;2023-04-25T13:40:03;10.80;99.90
39899;DHT22;25571;47.876;10.642;2023-04-25T13:42:30;10.90;99.90
39899;DHT22;25571;47.876;10.642;2023-04-25T13:44:56;11.00;99.90
39899;DHT22;25571;47.876;10.642;2023-04-25T13:47:22;10.90;99.90
39899;DHT22;25571;47.876;10.642;2023-04-25T13:49:49;10.90;99.90
39899;DHT22;25571;47.876;10.642;2023-04-25T13:52:15;10.80;99.90
39899;DHT22;25571;47.876;10.642;2023-04-25T13:54:40;10.90;99.90
39899;DHT22;25571;47.876;10.642;2023-04-25T13:57:06;11.20;99.90
39899;DHT22;25571;47.876;10.642;2023-04-25T13:59:32;10.80;99.90
39899;DHT22;25571;47.876;10.642;2023-04-25T14:01:58;10.90;99.90
39899;DHT22;25571;47.876;10.642;2023-04-25T14:04:24;10.70;99.90
39899;DHT22;25571;47.876;10.642;2023-04-25T14:06:50;10.70;99.90
39899;DHT22;25571;47.876;10.642;2023-04-25T14:09:17;10.90;99.90
39899;DHT22;25571;47.876;10.642;2023-04-25T14:11:43;10.90;99.90
39899;DHT22;25571;47.876;10.642;2023-04-25T14:14:08;11.00;99.90
39899;DHT22;25571;47.876;10.642;2023-04-25T14:16:34;10.80;99.90
39899;DHT22;25571;47.876;10.642;2023-04-25T14:19:01;10.60;99.90
39899;DHT22;25571;47.876;10.642;2023-04-25T14:21:27;10.60;99.90
39899;DHT22;25571;47.876;10.642;2023-04-25T14:23:53;10.40;99.90
39899;DHT22;25571;47.876;10.642;2023-04-25T14:26:19;10.00;99.90
39899;DHT22;25571;47.876;10.642;2023-04-25T14:28:45;9.90;99.90
39899;DHT22;25571;47.876;10.642;2023-04-25T14:31:10;10.10;99.90
39899;DHT22;25571;47.876;10.642;2023-04-25T14:33:36;10.40;99.90
39899;DHT22;25571;47.876;10.642;2023-04-25T14:36:05;10.50;99.90
39899;DHT22;25571;47.876;10.642;2023-04-25T14:38:30;10.30;99.90
39899;DHT22;25571;47.876;10.642;2023-04-25T14:40:56;10.40;99.90
39899;DHT22;25571;47.876;10.642;2023-04-25T14:43:22;10.40;99.90
39899;DHT22;25571;47.876;10.642;2023-04-25T14:45:47;10.50;99.90
39899;DHT22;25571;47.876;10.642;2023-04-25T14:48:13;10.00;99.90
39899;DHT22;25571;47.876;10.642;2023-04-25T14:50:38;10.20;99.90
39899;DHT22;25571;47.876;10.642;2023-04-25T14:53:04;10.30;99.90
39899;DHT22;25571;47.876;10.642;2023-04-25T14:55:30;9.90;99.90
39899;DHT22;25571;47.876;10.642;2023-04-25T14:57:55;9.90;99.90
39899;DHT22;25571;47.876;10.642;2023-04-25T15:00:22;9.80;99.90
39899;DHT22;25571;47.876;10.642;2023-04-25T15:02:48;9.90;99.90
39899;DHT22;25571;47.876;10.642;2023-04-25T15:05:14;9.90;99.90
39899;DHT22;25571;47.876;10.642;2023-04-25T15:07:40;9.70;99.90
39899;DHT22;25571;47.876;10.642;2023-04-25T15:10:07;9.80;99.90
39899;DHT22;25571;47.876;10.642;2023-04-25T15:12:39;9.70;99.90
39899;DHT22;25571;47.876;10.642;2023-04-25T15:15:05;9.70;99.90
39899;DHT22;25571;47.876;10.642;2023-04-25T15:17:31;9.60;99.90
39899;DHT22;25571;47.876;10.642;2023-04-25T15:19:57;9.40;99.90
39899;DHT22;25571;47.876;10.642;2023-04-25T15:22:22;9.40;99.90
39899;DHT22;25571;47.876;10.642;2023-04-25T15:24:48;9.60;99.90
39899;DHT22;25571;47.876;10.642;2023-04-25T15:27:14;10.00;99.90
39899;DHT22;25571;47.876;10.642;2023-04-25T15:29:39;9.40;99.90
39899;DHT22;25571;47.876;10.642;2023-04-25T15:32:05;9.50;99.90
39899;DHT22;25571;47.876;10.642;2023-04-25T15:34:31;9.50;99.90
39899;DHT22;25571;47.876;10.642;2023-04-25T15:36:57;9.50;99.90